createdAt,value
2019-05-18T00:00:26.399Z,7.6
2019-05-18T00:02:57.814Z,7.7
2019-05-18T00:05:29.327Z,9.4
2019-05-18T00:08:00.751Z,8.1
2019-05-18T00:10:32.293Z,7.5
2019-05-18T00:13:03.875Z,10.0
2019-05-18T00:15:35.934Z,8.6
2019-05-18T00:18:07.669Z,9.4
2019-05-18T00:20:39.334Z,10.0
2019-05-18T00:23:10.810Z,11.5
2019-05-18T00:25:42.518Z,10.1
2019-05-18T00:28:14.054Z,10.7
2019-05-18T00:30:45.761Z,9.3
2019-05-18T00:33:17.157Z,8.8
2019-05-18T00:35:48.903Z,11.4
2019-05-18T00:38:20.349Z,10.6
2019-05-18T00:40:51.925Z,11.7
2019-05-18T00:43:23.333Z,10.9
2019-05-18T00:45:54.767Z,9.7
2019-05-18T00:48:26.241Z,10.3
2019-05-18T00:50:58.205Z,13.3
2019-05-18T00:53:29.620Z,12.3
2019-05-18T00:56:01.356Z,13.8
2019-05-18T00:58:32.826Z,11.3
2019-05-18T01:01:04.318Z,12.8
2019-05-18T01:03:35.760Z,12.4
2019-05-18T01:06:07.357Z,12.7
2019-05-18T01:08:38.853Z,15.5
2019-05-18T01:11:10.560Z,13.1
2019-05-18T01:13:41.977Z,12.9
2019-05-18T01:16:13.616Z,14.7
2019-05-18T01:18:45.135Z,13.0
2019-05-18T01:21:16.785Z,14.3
2019-05-18T01:23:48.220Z,14.6
2019-05-18T01:26:19.837Z,13.2
2019-05-18T01:28:51.333Z,13.9
2019-05-18T01:31:26.299Z,13.8
2019-05-18T01:33:59.283Z,14.0
2019-05-18T01:36:32.409Z,13.1
2019-05-18T01:39:03.889Z,14.5
2019-05-18T01:41:35.569Z,15.4
2019-05-18T01:44:07.079Z,14.6
2019-05-18T01:46:38.716Z,13.7
2019-05-18T01:49:10.259Z,12.4
2019-05-18T01:51:42.247Z,14.8
2019-05-18T01:54:13.689Z,13.7
2019-05-18T01:56:45.343Z,13.6
2019-05-18T01:59:16.832Z,12.7
2019-05-18T02:01:48.354Z,12.6
2019-05-18T02:04:19.800Z,12.6
2019-05-18T02:06:51.409Z,11.3
2019-05-18T02:09:22.924Z,9.8
2019-05-18T02:11:54.486Z,8.6
2019-05-18T02:14:25.961Z,8.5
2019-05-18T02:16:57.797Z,6.3
2019-05-18T02:19:29.285Z,6.4
2019-05-18T02:22:01.031Z,6.4
2019-05-18T02:24:32.520Z,7.0
2019-05-18T02:27:04.113Z,6.2
2019-05-18T02:29:35.593Z,6.4
2019-05-18T02:32:07.256Z,6.9
2019-05-18T02:34:38.612Z,5.6
2019-05-18T02:37:10.609Z,6.7
2019-05-18T02:39:42.210Z,5.5
2019-05-18T02:42:13.939Z,6.3
2019-05-18T02:44:45.422Z,5.0
2019-05-18T02:47:17.194Z,4.8
2019-05-18T02:49:48.568Z,5.6
2019-05-18T02:52:20.559Z,8.4
2019-05-18T02:54:52.031Z,5.9
2019-05-18T02:57:23.532Z,6.0
2019-05-18T02:59:55.070Z,6.3
2019-05-18T03:02:26.715Z,5.1
2019-05-18T03:04:58.170Z,7.9
2019-05-18T03:07:29.911Z,6.5
2019-05-18T03:10:01.408Z,6.6
2019-05-18T03:12:33.136Z,6.6
2019-05-18T03:15:04.530Z,8.1
2019-05-18T03:17:36.257Z,9.9
2019-05-18T03:20:07.804Z,8.7
2019-05-18T03:22:39.504Z,11.1
2019-05-18T03:25:10.881Z,11.3
2019-05-18T03:27:42.582Z,12.1
2019-05-18T03:31:25.057Z,12.7
2019-05-18T03:33:58.303Z,11.9
2019-05-18T03:36:31.312Z,10.6
2019-05-18T03:39:04.441Z,11.6
2019-05-18T03:41:37.334Z,11.4
2019-05-18T03:44:10.488Z,12.9
2019-05-18T03:46:41.951Z,12.6
2019-05-18T03:49:25.807Z,12.5
2019-05-18T03:51:54.377Z,14.2
2019-05-18T03:54:26.289Z,10.9
2019-05-18T03:56:57.750Z,9.8
2019-05-18T03:59:29.250Z,8.7
2019-05-18T04:02:00.761Z,10.7
2019-05-18T04:04:32.384Z,8.0
2019-05-18T04:07:03.868Z,8.6
2019-05-18T04:09:35.467Z,9.4
2019-05-18T04:12:06.910Z,7.8
2019-05-18T04:14:38.558Z,7.1
2019-05-18T04:17:10.082Z,7.3
2019-05-18T04:19:46.677Z,6.6
2019-05-18T04:22:18.929Z,6.7
2019-05-18T04:24:50.592Z,7.1
2019-05-18T04:27:21.990Z,5.8
2019-05-18T04:29:53.568Z,6.7
2019-05-18T04:32:25.004Z,6.1
2019-05-18T04:34:56.465Z,5.8
2019-05-18T04:37:28.079Z,5.6
2019-05-18T04:40:00.117Z,5.8
2019-05-18T04:42:31.662Z,6.7
2019-05-18T04:45:03.345Z,4.8
2019-05-18T04:47:34.865Z,4.8
2019-05-18T04:50:06.468Z,6.0
2019-05-18T04:52:38.061Z,4.3
2019-05-18T04:55:10.022Z,5.5
2019-05-18T04:57:41.442Z,5.5
2019-05-18T05:00:13.015Z,4.6
2019-05-18T05:02:44.538Z,5.5
2019-05-18T05:05:16.214Z,4.6
2019-05-18T05:07:47.571Z,5.0
2019-05-18T05:10:19.218Z,5.1
2019-05-18T05:12:50.735Z,5.3
2019-05-18T05:15:22.464Z,5.3
2019-05-18T05:17:53.968Z,5.5
2019-05-18T05:20:25.550Z,5.3
2019-05-18T05:22:57.035Z,4.6
2019-05-18T05:25:28.707Z,4.3
2019-05-18T05:28:00.195Z,3.8
2019-05-18T05:31:25.866Z,4.5
2019-05-18T05:33:58.880Z,3.8
2019-05-18T05:36:53.776Z,2.7
2019-05-18T05:39:26.755Z,3.0
2019-05-18T05:42:00.142Z,2.7
2019-05-18T05:44:33.109Z,3.4
2019-05-18T05:47:06.214Z,3.1
2019-05-18T05:49:37.624Z,2.1
2019-05-18T05:52:09.179Z,3.1
2019-05-18T05:54:40.687Z,2.9
2019-05-18T05:57:12.399Z,2.9
2019-05-18T05:59:43.793Z,2.3
2019-05-18T06:02:15.369Z,3.3
2019-05-18T06:04:46.990Z,4.9
2019-05-18T06:07:18.771Z,4.7
2019-05-18T06:09:50.231Z,3.5
2019-05-18T06:12:22.879Z,8.7
2019-05-18T06:14:55.268Z,5.5
2019-05-18T06:17:27.738Z,4.2
2019-05-18T06:20:00.936Z,5.3
2019-05-18T06:22:33.277Z,5.0
2019-05-18T06:25:11.196Z,4.5
2019-05-18T06:27:44.947Z,4.2
2019-05-18T06:30:18.662Z,6.0
2019-05-18T06:32:50.577Z,6.0
2019-05-18T06:35:23.327Z,5.6
2019-05-18T06:37:55.045Z,5.8
2019-05-18T06:40:26.842Z,6.7
2019-05-18T06:42:58.633Z,5.0
2019-05-18T06:45:30.063Z,4.4
2019-05-18T06:48:01.849Z,4.8
2019-05-18T06:50:33.432Z,4.3
2019-05-18T06:53:05.056Z,5.1
2019-05-18T06:55:36.710Z,4.8
2019-05-18T06:58:08.699Z,6.9
2019-05-18T07:00:40.232Z,6.0
2019-05-18T07:03:11.997Z,5.1
2019-05-18T07:05:43.427Z,5.2
2019-05-18T07:08:15.248Z,8.2
2019-05-18T07:10:46.762Z,5.3
2019-05-18T07:13:18.796Z,4.8
2019-05-18T07:15:50.338Z,6.8
2019-05-18T07:18:22.108Z,4.4
2019-05-18T07:20:53.607Z,6.1
2019-05-18T07:23:25.455Z,2.9
2019-05-18T07:25:56.908Z,3.4
2019-05-18T07:28:29.027Z,3.0
2019-05-18T07:31:25.244Z,3.4
2019-05-18T07:33:58.489Z,2.7
2019-05-18T07:36:29.975Z,2.3
2019-05-18T07:39:01.528Z,2.9
2019-05-18T07:41:45.777Z,6.0
2019-05-18T07:44:14.152Z,3.6
2019-05-18T07:46:45.553Z,3.6
2019-05-18T07:49:17.338Z,3.3
2019-05-18T07:51:48.808Z,3.0
2019-05-18T07:54:20.455Z,4.8
2019-05-18T07:56:51.928Z,4.2
2019-05-18T07:59:23.625Z,4.0
2019-05-18T08:01:55.094Z,3.7
2019-05-18T08:04:26.764Z,4.2
2019-05-18T08:06:58.227Z,3.2
2019-05-18T08:09:29.714Z,3.0
2019-05-18T08:12:01.029Z,3.3
2019-05-18T08:14:32.641Z,2.8
2019-05-18T08:17:04.063Z,3.0
2019-05-18T08:19:35.637Z,2.6
2019-05-18T08:22:07.126Z,3.0
2019-05-18T08:24:38.709Z,3.9
2019-05-18T08:27:10.206Z,2.7
2019-05-18T08:29:41.814Z,3.6
2019-05-18T08:32:13.232Z,2.8
2019-05-18T08:34:44.742Z,3.5
2019-05-18T08:37:16.196Z,3.2
2019-05-18T08:39:47.906Z,4.5
2019-05-18T08:42:19.269Z,3.4
2019-05-18T08:44:50.973Z,4.2
2019-05-18T08:47:22.527Z,3.4
2019-05-18T08:49:54.099Z,3.7
2019-05-18T08:52:25.500Z,3.9
2019-05-18T08:54:57.099Z,4.7
2019-05-18T08:57:28.749Z,4.3
2019-05-18T09:00:00.379Z,4.3
2019-05-18T09:02:31.902Z,2.6
2019-05-18T09:05:04.924Z,4.8
2019-05-18T09:07:36.609Z,2.8
2019-05-18T09:10:08.137Z,4.7
2019-05-18T09:12:39.668Z,5.3
2019-05-18T09:15:11.330Z,3.5
2019-05-18T09:17:42.911Z,2.6
2019-05-18T09:20:14.713Z,3.5
2019-05-18T09:22:46.131Z,3.7
2019-05-18T09:25:17.825Z,4.8
2019-05-18T09:27:49.281Z,1.9
2019-05-18T09:31:25.445Z,2.1
2019-05-18T09:33:56.912Z,2.1
2019-05-18T09:36:28.833Z,1.9
2019-05-18T09:39:00.204Z,2.1
2019-05-18T09:41:31.965Z,1.9
2019-05-18T09:44:03.530Z,3.1
2019-05-18T09:46:35.331Z,2.2
2019-05-18T09:49:06.757Z,2.0
2019-05-18T09:51:38.408Z,2.3
2019-05-18T09:54:09.843Z,1.7
2019-05-18T09:56:41.507Z,2.0
2019-05-18T09:59:13.042Z,2.3
2019-05-18T10:01:44.837Z,4.2
2019-05-18T10:04:16.308Z,2.1
2019-05-18T10:06:47.850Z,2.6
2019-05-18T10:09:19.377Z,2.8
2019-05-18T10:11:50.857Z,5.2
2019-05-18T10:14:22.351Z,3.0
2019-05-18T10:16:54.004Z,2.4
2019-05-18T10:19:25.448Z,3.3
2019-05-18T10:21:57.345Z,3.0
2019-05-18T10:24:28.733Z,2.5
2019-05-18T10:27:00.409Z,3.7
2019-05-18T10:29:32.044Z,2.8
2019-05-18T10:32:04.024Z,2.5
2019-05-18T10:34:35.554Z,3.4
2019-05-18T10:37:07.126Z,3.2
2019-05-18T10:39:38.858Z,2.6
2019-05-18T10:42:10.523Z,3.5
2019-05-18T10:44:41.977Z,2.3
2019-05-18T10:47:13.670Z,3.6
2019-05-18T10:49:45.141Z,3.0
2019-05-18T10:52:16.678Z,2.9
2019-05-18T10:54:48.219Z,3.5
2019-05-18T10:57:19.763Z,3.4
2019-05-18T10:59:51.273Z,2.8
2019-05-18T11:02:23.006Z,3.6
2019-05-18T11:04:54.680Z,3.5
2019-05-18T11:07:28.915Z,5.4
2019-05-18T11:10:00.460Z,3.2
2019-05-18T11:12:32.188Z,3.6
2019-05-18T11:15:03.802Z,3.9
2019-05-18T11:17:35.806Z,4.7
2019-05-18T11:20:07.422Z,3.7
2019-05-18T11:22:38.988Z,3.1
2019-05-18T11:25:10.407Z,3.4
2019-05-18T11:27:42.083Z,3.0
2019-05-18T11:31:24.700Z,4.3
2019-05-18T11:33:58.182Z,4.2
2019-05-18T11:36:31.212Z,3.3
2019-05-18T11:39:04.314Z,4.6
2019-05-18T11:41:37.206Z,4.4
2019-05-18T11:44:10.975Z,4.8
2019-05-18T11:46:44.030Z,5.2
2019-05-18T11:49:17.543Z,4.4
2019-05-18T11:51:50.362Z,4.9
2019-05-18T11:54:23.574Z,4.9
2019-05-18T11:56:56.569Z,5.7
2019-05-18T11:59:29.581Z,6.0
2019-05-18T12:02:02.614Z,7.0
2019-05-18T12:04:35.761Z,6.2
2019-05-18T12:07:07.227Z,8.0
2019-05-18T12:09:38.987Z,7.0
2019-05-18T12:12:10.478Z,6.4
2019-05-18T12:14:42.192Z,5.5
2019-05-18T12:17:13.781Z,7.4
2019-05-18T12:19:45.545Z,5.3
2019-05-18T12:22:17.169Z,6.8
2019-05-18T12:24:48.878Z,5.4
2019-05-18T12:27:20.461Z,5.3
2019-05-18T12:29:52.351Z,6.8
2019-05-18T12:32:23.897Z,6.2
2019-05-18T12:34:55.878Z,5.1
2019-05-18T12:37:27.352Z,6.4
2019-05-18T12:39:58.995Z,5.3
2019-05-18T12:42:30.652Z,6.6
2019-05-18T12:45:02.290Z,5.4
2019-05-18T12:47:33.571Z,7.9
2019-05-18T12:50:05.317Z,5.4
2019-05-18T12:52:36.762Z,6.4
2019-05-18T12:55:08.536Z,5.5
2019-05-18T12:57:40.094Z,5.8
2019-05-18T13:00:11.952Z,5.2
2019-05-18T13:02:43.585Z,5.6
2019-05-18T13:05:15.234Z,6.0
2019-05-18T13:07:46.627Z,6.3
2019-05-18T13:10:18.360Z,5.4
2019-05-18T13:12:49.742Z,5.5
2019-05-18T13:15:21.411Z,6.9
2019-05-18T13:17:52.833Z,6.8
2019-05-18T13:20:24.496Z,5.5
2019-05-18T13:22:55.933Z,6.6
2019-05-18T13:25:27.625Z,8.5
2019-05-18T13:27:59.174Z,5.0
2019-05-18T13:31:25.132Z,5.5
2019-05-18T13:33:58.113Z,5.6
2019-05-18T13:36:31.703Z,6.7
2019-05-18T13:39:04.667Z,6.0
2019-05-18T13:41:37.815Z,6.3
2019-05-18T13:44:09.168Z,7.5
2019-05-18T13:46:40.953Z,7.0
2019-05-18T13:49:12.631Z,6.8
2019-05-18T13:51:44.426Z,6.3
2019-05-18T13:54:15.921Z,6.9
2019-05-18T13:56:47.426Z,6.8
2019-05-18T13:59:19.108Z,7.0
2019-05-18T14:01:50.789Z,5.7
2019-05-18T14:04:22.267Z,5.8
2019-05-18T14:06:54.212Z,4.3
2019-05-18T14:09:25.681Z,4.3
2019-05-18T14:11:57.482Z,5.0
2019-05-18T14:14:28.874Z,7.2
2019-05-18T14:17:00.389Z,5.7
2019-05-18T14:19:31.876Z,4.8
2019-05-18T14:22:03.603Z,2.9
2019-05-18T14:24:35.040Z,3.4
2019-05-18T14:27:06.606Z,4.1
2019-05-18T14:29:38.082Z,4.6
2019-05-18T14:32:11.003Z,6.0
2019-05-18T14:34:42.698Z,4.2
2019-05-18T14:37:14.517Z,4.1
2019-05-18T14:39:46.072Z,4.4
2019-05-18T14:42:17.783Z,4.5
2019-05-18T14:44:49.182Z,3.7
2019-05-18T14:47:20.881Z,2.7
2019-05-18T14:49:52.391Z,3.4
2019-05-18T14:52:24.310Z,4.6
2019-05-18T14:54:55.781Z,3.8
2019-05-18T14:57:27.432Z,3.9
2019-05-18T15:00:02.161Z,2.1
2019-05-18T15:02:34.399Z,3.7
2019-05-18T15:05:05.909Z,3.6
2019-05-18T15:07:37.649Z,5.7
2019-05-18T15:10:09.089Z,8.0
2019-05-18T15:12:40.737Z,6.3
2019-05-18T15:15:12.117Z,4.9
2019-05-18T15:17:43.722Z,3.4
2019-05-18T15:20:15.254Z,3.2
2019-05-18T15:22:47.261Z,3.4
2019-05-18T15:25:18.719Z,3.8
2019-05-18T15:27:50.380Z,3.4
2019-05-18T15:31:25.593Z,2.8
2019-05-18T15:33:57.136Z,1.8
2019-05-18T15:36:28.614Z,3.5
2019-05-18T15:39:00.342Z,2.1
2019-05-18T15:41:32.019Z,2.5
2019-05-18T15:44:03.545Z,1.7
2019-05-18T15:46:35.103Z,3.1
2019-05-18T15:49:06.563Z,3.0
2019-05-18T15:51:38.077Z,2.8
2019-05-18T15:54:09.857Z,9.0
2019-05-18T15:56:44.060Z,3.4
2019-05-18T15:59:16.002Z,2.2
2019-05-18T16:01:47.580Z,3.8
2019-05-18T16:04:19.346Z,5.5
2019-05-18T16:06:51.620Z,2.1
2019-05-18T16:09:29.321Z,2.0
2019-05-18T16:12:01.124Z,4.0
2019-05-18T16:14:32.772Z,2.8
2019-05-18T16:17:04.266Z,3.0
2019-05-18T16:19:35.961Z,3.0
2019-05-18T16:22:07.392Z,2.2
2019-05-18T16:24:38.926Z,8.4
2019-05-18T16:27:10.359Z,2.2
2019-05-18T16:29:42.058Z,4.0
2019-05-18T16:32:13.625Z,3.6
2019-05-18T16:34:45.469Z,3.9
2019-05-18T16:37:17.092Z,5.6
2019-05-18T16:39:49.377Z,4.0
2019-05-18T16:42:20.935Z,4.3
2019-05-18T16:44:52.696Z,2.6
2019-05-18T16:47:24.441Z,2.8
2019-05-18T16:49:56.175Z,3.6
2019-05-18T16:52:27.704Z,4.2
2019-05-18T16:54:59.397Z,3.9
2019-05-18T16:57:30.949Z,3.9
2019-05-18T17:00:02.615Z,4.0
2019-05-18T17:02:34.102Z,3.5
2019-05-18T17:05:05.815Z,3.3
2019-05-18T17:07:37.231Z,3.9
2019-05-18T17:10:08.847Z,5.5
2019-05-18T17:12:40.512Z,5.5
2019-05-18T17:15:12.087Z,4.5
2019-05-18T17:17:43.512Z,3.1
2019-05-18T17:20:15.295Z,2.6
2019-05-18T17:22:46.848Z,2.0
2019-05-18T17:25:19.749Z,1.6
2019-05-18T17:27:51.106Z,2.0
2019-05-18T17:31:24.791Z,2.8
2019-05-18T17:33:57.814Z,2.4
2019-05-18T17:36:30.851Z,4.1
2019-05-18T17:39:03.831Z,1.8
2019-05-18T17:41:36.902Z,4.6
2019-05-18T17:44:09.910Z,4.4
2019-05-18T17:46:42.836Z,5.6
2019-05-18T17:49:26.207Z,6.3
2019-05-18T17:51:58.824Z,3.5
2019-05-18T17:54:32.048Z,4.1
2019-05-18T17:57:08.312Z,3.4
2019-05-18T17:59:42.114Z,7.0
2019-05-18T18:02:15.246Z,5.4
2019-05-18T18:04:48.314Z,5.2
2019-05-18T18:07:21.404Z,4.5
2019-05-18T18:09:54.318Z,4.5
2019-05-18T18:12:27.639Z,4.6
2019-05-18T18:15:00.688Z,5.0
2019-05-18T18:17:33.761Z,5.6
2019-05-18T18:20:06.705Z,4.3
2019-05-18T18:22:39.917Z,3.9
2019-05-18T18:25:11.321Z,4.1
2019-05-18T18:27:43.464Z,4.1
2019-05-18T18:30:14.942Z,5.3
2019-05-18T18:32:46.676Z,5.8
2019-05-18T18:35:18.182Z,4.6
2019-05-18T18:37:49.900Z,5.0
2019-05-18T18:40:21.296Z,8.7
2019-05-18T18:42:53.235Z,7.3
2019-05-18T18:45:24.691Z,6.9
2019-05-18T18:47:56.422Z,5.4
2019-05-18T18:50:27.891Z,7.2
2019-05-18T18:52:59.513Z,5.0
2019-05-18T18:55:30.861Z,4.5
2019-05-18T18:58:02.815Z,8.0
2019-05-18T19:00:34.342Z,5.7
2019-05-18T19:03:05.854Z,8.5
2019-05-18T19:05:37.349Z,5.8
2019-05-18T19:08:09.046Z,6.7
2019-05-18T19:10:40.423Z,6.4
2019-05-18T19:13:12.367Z,7.4
2019-05-18T19:15:43.779Z,6.1
2019-05-18T19:18:15.435Z,6.0
2019-05-18T19:20:47.005Z,4.7
2019-05-18T19:23:18.714Z,5.8
2019-05-18T19:25:50.101Z,5.2
2019-05-18T19:28:21.856Z,17.6
2019-05-18T19:31:25.472Z,10.4
2019-05-18T19:33:58.766Z,4.7
2019-05-18T19:36:31.792Z,5.1
2019-05-18T19:39:04.810Z,5.7
2019-05-18T19:41:37.705Z,25.5
2019-05-18T19:44:11.021Z,14.2
2019-05-18T19:46:44.078Z,5.8
2019-05-18T19:49:17.359Z,15.3
2019-05-18T19:51:53.869Z,13.4
2019-05-18T19:54:25.743Z,7.1
2019-05-18T19:56:57.308Z,5.9
2019-05-18T19:59:29.605Z,6.2
2019-05-18T20:02:01.184Z,3.5
2019-05-18T20:04:32.956Z,4.1
2019-05-18T20:07:04.459Z,3.3
2019-05-18T20:09:36.165Z,4.4
2019-05-18T20:12:07.696Z,3.3
2019-05-18T20:14:39.511Z,3.4
2019-05-18T20:17:11.057Z,3.8
2019-05-18T20:19:42.893Z,3.5
2019-05-18T20:22:14.432Z,3.6
2019-05-18T20:24:46.055Z,3.0
2019-05-18T20:27:17.566Z,2.6
2019-05-18T20:29:49.508Z,3.7
2019-05-18T20:32:21.057Z,3.7
2019-05-18T20:34:52.591Z,2.9
2019-05-18T20:37:24.174Z,4.1
2019-05-18T20:39:55.999Z,4.4
2019-05-18T20:42:27.411Z,3.8
2019-05-18T20:44:59.477Z,3.0
2019-05-18T20:47:30.972Z,3.5
2019-05-18T20:50:02.562Z,3.1
2019-05-18T20:52:34.036Z,2.7
2019-05-18T20:55:05.613Z,3.6
2019-05-18T20:57:37.117Z,3.5
2019-05-18T21:00:09.026Z,5.5
2019-05-18T21:02:40.585Z,4.2
2019-05-18T21:05:12.411Z,3.3
2019-05-18T21:07:43.924Z,4.0
2019-05-18T21:10:15.605Z,5.8
2019-05-18T21:12:47.096Z,5.9
2019-05-18T21:15:18.702Z,4.5
2019-05-18T21:17:50.138Z,5.2
2019-05-18T21:20:21.791Z,4.4
2019-05-18T21:22:53.233Z,6.2
2019-05-18T21:25:24.789Z,4.4
2019-05-18T21:27:56.338Z,5.8
2019-05-18T21:31:25.106Z,5.3
2019-05-18T21:33:58.113Z,4.0
2019-05-18T21:36:31.364Z,4.0
2019-05-18T21:39:02.849Z,3.6
2019-05-18T21:41:34.466Z,4.2
2019-05-18T21:44:05.882Z,4.5
2019-05-18T21:46:39.116Z,5.4
2019-05-18T21:49:10.715Z,5.5
2019-05-18T21:51:42.401Z,5.1
2019-05-18T21:54:14.017Z,5.4
2019-05-18T21:56:45.667Z,5.8
2019-05-18T21:59:17.146Z,4.8
2019-05-18T22:01:48.601Z,5.7
2019-05-18T22:04:20.087Z,5.6
2019-05-18T22:06:51.627Z,5.9
2019-05-18T22:09:23.137Z,4.4
2019-05-18T22:11:54.957Z,4.0
2019-05-18T22:14:26.488Z,4.3
2019-05-18T22:16:58.491Z,4.3
2019-05-18T22:19:29.961Z,4.3
2019-05-18T22:22:01.668Z,4.0
2019-05-18T22:24:33.154Z,4.0
2019-05-18T22:27:04.852Z,2.8
2019-05-18T22:29:36.225Z,3.3
2019-05-18T22:32:07.975Z,2.6
2019-05-18T22:34:39.444Z,2.2
2019-05-18T22:37:11.206Z,3.6
2019-05-18T22:39:42.757Z,2.6
2019-05-18T22:42:14.289Z,3.4
2019-05-18T22:44:45.753Z,3.4
2019-05-18T22:47:17.506Z,6.0
2019-05-18T22:49:48.987Z,3.9
2019-05-18T22:52:20.745Z,3.2
2019-05-18T22:54:52.254Z,4.9
2019-05-18T22:57:23.815Z,3.8
2019-05-18T22:59:55.338Z,3.2
2019-05-18T23:02:27.323Z,3.1
2019-05-18T23:04:58.989Z,2.8
2019-05-18T23:07:30.568Z,2.8
2019-05-18T23:10:02.094Z,2.6
2019-05-18T23:12:33.769Z,2.7
2019-05-18T23:15:05.185Z,2.4
2019-05-18T23:17:36.782Z,3.8
2019-05-18T23:20:08.206Z,2.7
2019-05-18T23:22:39.883Z,1.9
2019-05-18T23:25:11.354Z,4.2
2019-05-18T23:27:43.408Z,1.8
2019-05-18T23:31:24.922Z,4.2
2019-05-18T23:33:58.336Z,2.7
2019-05-18T23:36:31.430Z,2.4
2019-05-18T23:39:04.563Z,2.4
2019-05-18T23:41:37.493Z,1.9
2019-05-18T23:44:10.720Z,1.9
2019-05-18T23:46:42.147Z,1.9
2019-05-18T23:49:13.723Z,2.4
2019-05-18T23:51:45.189Z,1.6
2019-05-18T23:54:16.841Z,2.7
2019-05-18T23:56:48.463Z,0.9
2019-05-18T23:59:20.101Z,1.4
